Time;durP1;ratioP1;P1;durP2;ratioP2;P2;SDS_P1;SDS_P2;PMS_P1;PMS_P2;Temp;Humidity;BMP_temperature;BMP_pressure;BME280_temperature;BME280_humidity;BME280_pressure;Samples;Min_cycle;Max_cycle;Signal;HPM_P1;HPM_P2
2020/12/28 00:00:47;;;;;;;2.92;1.17;;;16.10;63.00;;;;;;5060205;28;20043;-68
2020/12/28 00:03:18;;;;;;;4.97;1.20;;;16.20;63.00;;;;;;5054273;28;20094;-69
2020/12/28 00:05:49;;;;;;;6.22;1.10;;;16.10;62.70;;;;;;5050951;28;20029;-69
2020/12/28 00:08:19;;;;;;;3.25;1.17;;;16.20;62.60;;;;;;5048133;28;20044;-68
2020/12/28 00:10:49;;;;;;;4.18;1.13;;;16.20;62.20;;;;;;5058769;28;20063;-68
2020/12/28 00:13:21;;;;;;;2.47;1.00;;;16.20;62.20;;;;;;5072525;28;20040;-67
2020/12/28 00:15:52;;;;;;;;;;;16.20;62.30;;;;;;5067278;28;20427;-66
2020/12/28 00:18:21;;;;;;;2.92;1.05;;;16.30;62.30;;;;;;5060748;28;20015;-66
2020/12/28 00:20:53;;;;;;;3.42;1.40;;;16.30;62.00;;;;;;5067525;28;20546;-66
2020/12/28 00:23:23;;;;;;;4.63;1.15;;;16.30;61.90;;;;;;5064738;28;20036;-68
2020/12/28 00:25:54;;;;;;;4.05;0.95;;;16.30;61.80;;;;;;5054030;28;20493;-69
2020/12/28 00:28:23;;;;;;;2.25;0.90;;;16.30;61.50;;;;;;5066676;28;20044;-68
2020/12/28 00:30:54;;;;;;;2.97;1.10;;;16.30;61.40;;;;;;5071514;28;20283;-69
2020/12/28 00:33:23;;;;;;;1.48;0.80;;;16.40;61.40;;;;;;5067477;28;20098;-67
2020/12/28 00:35:54;;;;;;;1.80;0.90;;;16.40;61.40;;;;;;5062324;28;20571;-68
2020/12/28 00:38:23;;;;;;;3.72;1.00;;;16.40;61.30;;;;;;5067132;28;20147;-69
2020/12/28 00:40:54;;;;;;;4.70;1.00;;;16.40;61.30;;;;;;5060870;28;20532;-67
2020/12/28 00:43:23;;;;;;;3.33;1.52;;;16.50;61.40;;;;;;5056820;28;20071;-67
2020/12/28 00:45:55;;;;;;;6.05;1.52;;;16.50;61.70;;;;;;5064265;28;20139;-66
2020/12/28 00:48:26;;;;;;;3.35;1.25;;;16.50;60.90;;;;;;5067453;28;20431;-68
2020/12/28 00:50:58;;;;;;;2.67;1.02;;;16.50;60.90;;;;;;5060463;28;20045;-68
2020/12/28 00:53:33;;;;;;;3.38;1.38;;;16.50;60.80;;;;;;5063291;28;20114;-69
2020/12/28 00:56:02;;;;;;;4.25;1.48;;;16.60;60.70;;;;;;5057708;28;20056;-67
2020/12/28 00:58:36;;;;;;;2.67;0.68;;;16.60;60.80;;;;;;5065214;28;20143;-68
2020/12/28 01:01:10;;;;;;;4.40;1.42;;;16.60;60.80;;;;;;5058377;28;20067;-67
2020/12/28 01:03:41;;;;;;;3.50;1.50;;;16.60;60.90;;;;;;5045439;28;20068;-67
2020/12/28 01:06:18;;;;;;;6.53;1.45;;;16.70;60.80;;;;;;5057377;28;20124;-67
2020/12/28 01:08:57;;;;;;;4.28;1.63;;;16.70;60.70;;;;;;5069094;28;20127;-67
2020/12/28 01:11:28;;;;;;;6.00;1.70;;;16.70;60.60;;;;;;5060101;28;20147;-67
2020/12/28 01:14:02;;;;;;;4.40;1.40;;;16.70;60.50;;;;;;5058384;28;20286;-67
2020/12/28 01:16:32;;;;;;;7.05;1.98;;;16.80;60.50;;;;;;5043684;28;20057;-67
2020/12/28 01:19:04;;;;;;;4.97;1.67;;;16.80;60.50;;;;;;5059384;28;20052;-67
2020/12/28 01:21:38;;;;;;;5.93;1.38;;;16.80;60.50;;;;;;5046502;28;20084;-67
2020/12/28 01:24:09;;;;;;;6.15;1.42;;;16.80;60.50;;;;;;5049761;28;20055;-67
2020/12/28 01:26:43;;;;;;;2.65;1.13;;;16.90;60.40;;;;;;5061790;28;20059;-67
2020/12/28 01:29:13;;;;;;;4.72;1.17;;;16.80;60.20;;;;;;5057286;28;20051;-67
2020/12/28 01:31:45;;;;;;;4.45;1.40;;;16.90;60.20;;;;;;5068811;28;20514;-67
2020/12/28 01:34:22;;;;;;;2.42;1.15;;;16.90;60.10;;;;;;5043757;28;20056;-67
2020/12/28 01:37:00;;;;;;;3.78;1.52;;;16.90;60.00;;;;;;5056315;28;20098;-67
2020/12/28 01:39:45;;;;;;;2.53;1.30;;;16.90;59.90;;;;;;5065334;28;20522;-66
2020/12/28 01:42:16;;;;;;;5.85;1.77;;;17.00;60.00;;;;;;5063941;28;20044;-67
2020/12/28 01:44:53;;;;;;;6.63;1.50;;;16.90;59.80;;;;;;5051080;28;20131;-67
2020/12/28 01:47:26;;;;;;;3.67;1.15;;;17.00;59.60;;;;;;5062783;28;20055;-67
2020/12/28 01:49:58;;;;;;;6.47;1.50;;;17.00;59.50;;;;;;5031051;28;20045;-67
2020/12/28 01:52:32;;;;;;;4.38;1.15;;;17.00;59.30;;;;;;5054555;28;20501;-66
2020/12/28 01:55:03;;;;;;;3.45;1.50;;;17.00;59.10;;;;;;5064411;28;20113;-68
2020/12/28 01:57:48;;;;;;;7.85;1.67;;;17.00;59.20;;;;;;5054580;28;20045;-69
2020/12/28 02:00:19;;;;;;;5.85;1.52;;;17.00;59.10;;;;;;5064569;28;20119;-66
2020/12/28 02:02:58;;;;;;;4.63;0.98;;;17.10;59.20;;;;;;5053965;28;20523;-65
2020/12/28 02:05:42;;;;;;;4.78;1.60;;;17.10;59.10;;;;;;5055873;28;20053;-66
2020/12/28 02:08:14;;;;;;;6.50;1.90;;;17.10;59.00;;;;;;5061282;28;20044;-65
2020/12/28 02:10:45;;;;;;;4.28;1.38;;;17.10;58.70;;;;;;5044332;28;20049;-65
2020/12/28 02:13:16;;;;;;;;;;;17.10;58.70;;;;;;5062299;28;20045;-66
2020/12/28 02:16:08;;;;;;;6.47;1.25;;;17.10;58.80;;;;;;5062819;28;19924;-66
2020/12/28 02:18:47;;;;;;;5.22;1.83;;;17.10;58.50;;;;;;5050624;28;20064;-67
2020/12/28 02:21:27;;;;;;;4.40;1.20;;;17.20;58.50;;;;;;5049184;28;20511;-66
2020/12/28 02:23:58;;;;;;;5.68;1.48;;;17.20;58.60;;;;;;5061532;28;20438;-66
2020/12/28 02:26:30;;;;;;;4.53;1.42;;;17.20;58.60;;;;;;5063628;28;20530;-67
2020/12/28 02:29:00;;;;;;;2.10;1.30;;;17.20;58.50;;;;;;5061006;28;20118;-66
2020/12/28 02:31:30;;;;;;;4.13;1.40;;;17.30;58.70;;;;;;5060759;28;20478;-67
2020/12/28 02:34:18;;;;;;;3.90;1.08;;;17.30;58.70;;;;;;5056729;28;20052;-67
2020/12/28 02:36:55;;;;;;;5.07;1.40;;;17.30;58.70;;;;;;5058419;28;20048;-65
2020/12/28 02:39:37;;;;;;;2.45;0.88;;;17.30;58.80;;;;;;5061417;28;20132;-64
2020/12/28 02:42:07;;;;;;;5.43;1.60;;;17.40;58.80;;;;;;5060283;28;20064;-64
2020/12/28 02:44:54;;;;;;;3.78;1.17;;;17.40;58.80;;;;;;5063299;28;20105;-66
2020/12/28 02:47:42;;;;;;;4.38;1.10;;;17.50;58.90;;;;;;5062538;28;20766;-68
2020/12/28 02:50:31;;;;;;;4.72;1.23;;;17.50;58.90;;;;;;5064727;28;20079;-66
2020/12/28 02:53:21;;;;;;;4.07;1.08;;;17.50;58.80;;;;;;5060335;28;20804;-66
2020/12/28 02:56:10;;;;;;;3.10;1.10;;;17.50;58.80;;;;;;5064177;28;20491;-68
2020/12/28 02:58:58;;;;;;;2.50;0.88;;;17.50;58.90;;;;;;5066046;28;20074;-66
2020/12/28 03:01:58;;;;;;;4.15;1.30;;;17.60;58.90;;;;;;4994660;28;20066;-67
2020/12/28 03:04:47;;;;;;;5.40;2.13;;;17.60;58.60;;;;;;5062326;28;20056;-69
2020/12/28 03:07:36;;;;;;;4.30;1.10;;;17.60;58.60;;;;;;5067166;28;20416;-65
2020/12/28 03:10:25;;;;;;;2.15;1.25;;;17.60;58.50;;;;;;5062693;28;20681;-65
2020/12/28 03:13:15;;;;;;;6.75;1.35;;;17.60;58.20;;;;;;5074543;28;20064;-66
2020/12/28 03:16:05;;;;;;;4.57;1.15;;;17.60;58.10;;;;;;5053829;28;20158;-66
2020/12/28 03:18:52;;;;;;;3.42;1.42;;;17.60;58.00;;;;;;5047666;28;20198;-66
2020/12/28 03:21:40;;;;;;;3.15;1.02;;;17.60;58.10;;;;;;5053140;28;20572;-64
2020/12/28 03:24:28;;;;;;;2.03;0.98;;;17.70;58.20;;;;;;5063040;28;20047;-65
2020/12/28 03:27:16;;;;;;;3.05;1.00;;;17.70;58.00;;;;;;5063426;28;20060;-67
2020/12/28 03:30:04;;;;;;;5.60;1.60;;;17.70;57.90;;;;;;5064415;28;20059;-66
2020/12/28 03:32:53;;;;;;;4.03;0.90;;;17.70;57.90;;;;;;5065401;28;20079;-64
2020/12/28 03:35:41;;;;;;;2.60;0.88;;;17.70;57.60;;;;;;5065801;28;20058;-66
2020/12/28 03:38:29;;;;;;;3.85;1.40;;;17.70;57.70;;;;;;5068428;28;20063;-68
2020/12/28 03:41:17;;;;;;;4.40;1.17;;;17.80;57.70;;;;;;5052377;28;20145;-66
2020/12/28 03:44:05;;;;;;;2.80;2.13;;;17.80;57.60;;;;;;5066903;28;20141;-67
2020/12/28 03:46:52;;;;;;;3.28;0.85;;;17.80;57.40;;;;;;5056450;28;20055;-67
2020/12/28 03:49:42;;;;;;;5.15;1.13;;;17.80;57.30;;;;;;5063070;28;20056;-67
2020/12/28 03:52:32;;;;;;;3.78;0.90;;;17.80;57.10;;;;;;5059503;28;20133;-68
2020/12/28 03:55:20;;;;;;;3.20;0.90;;;17.90;57.20;;;;;;5067837;28;20054;-68
2020/12/28 03:58:08;;;;;;;3.17;1.45;;;17.80;57.00;;;;;;5065389;28;20580;-69
2020/12/28 04:00:56;;;;;;;1.63;0.82;;;17.90;56.90;;;;;;5068191;28;20066;-67
2020/12/28 04:03:46;;;;;;;4.45;1.35;;;17.90;56.80;;;;;;5062364;28;20585;-69
2020/12/28 04:06:35;;;;;;;3.60;1.00;;;17.90;56.70;;;;;;5067025;28;20055;-68
2020/12/28 04:09:24;;;;;;;4.95;1.15;;;17.90;56.70;;;;;;5066492;28;20070;-68
2020/12/28 04:12:13;;;;;;;5.20;1.13;;;17.90;56.60;;;;;;5067116;28;20055;-67
2020/12/28 04:14:45;;;;;;;5.53;1.40;;;17.90;56.60;;;;;;5047971;28;20089;-67
2020/12/28 04:17:14;;;;;;;4.82;1.35;;;18.00;56.70;;;;;;5047276;28;20052;-67
2020/12/28 04:19:44;;;;;;;1.90;0.95;;;18.00;56.50;;;;;;5050147;28;20052;-67
2020/12/28 04:22:14;;;;;;;2.00;0.82;;;18.00;56.50;;;;;;5047907;28;20119;-67
2020/12/28 04:24:43;;;;;;;2.95;1.08;;;18.00;56.40;;;;;;5062819;28;20040;-65
2020/12/28 04:27:14;;;;;;;5.57;1.23;;;18.00;56.30;;;;;;5066405;28;20067;-65
2020/12/28 04:29:46;;;;;;;2.90;1.00;;;18.00;56.30;;;;;;5065320;28;20090;-67
2020/12/28 04:32:16;;;;;;;3.58;1.27;;;18.10;56.30;;;;;;5070373;28;20139;-67
2020/12/28 04:34:46;;;;;;;5.38;1.50;;;18.10;56.30;;;;;;5065519;28;20052;-67
2020/12/28 04:37:15;;;;;;;5.28;1.27;;;18.10;56.30;;;;;;5067191;28;20131;-67
2020/12/28 04:39:45;;;;;;;2.55;0.90;;;18.10;56.10;;;;;;5053379;28;20055;-67
2020/12/28 04:42:22;;;;;;;6.60;1.23;;;18.10;56.20;;;;;;5067326;28;20040;-67
2020/12/28 04:44:51;;;;;;;2.72;0.88;;;18.20;56.10;;;;;;5059753;28;20050;-68
2020/12/28 04:47:21;;;;;;;3.28;0.80;;;18.20;55.90;;;;;;5053364;28;20033;-70
2020/12/28 04:49:51;;;;;;;3.15;1.15;;;18.20;55.90;;;;;;5063132;28;20044;-70
2020/12/28 04:52:27;;;;;;;4.45;1.17;;;18.20;55.80;;;;;;5059651;28;20037;-72
2020/12/28 04:54:59;;;;;;;4.22;1.00;;;18.20;55.80;;;;;;5064474;28;20068;-68
2020/12/28 04:57:29;;;;;;;3.92;1.30;;;18.20;55.70;;;;;;5056545;28;20045;-68
2020/12/28 05:00:02;;;;;;;3.65;1.17;;;18.20;55.80;;;;;;5050928;28;20040;-68
2020/12/28 05:02:35;;;;;;;7.43;1.38;;;18.20;55.80;;;;;;5064542;28;20040;-68
2020/12/28 05:05:09;;;;;;;4.65;1.02;;;18.20;55.60;;;;;;5059739;28;20098;-68
2020/12/28 05:07:40;;;;;;;2.80;0.75;;;18.20;55.60;;;;;;5057049;28;20037;-67
2020/12/28 05:10:22;;;;;;;2.70;1.00;;;18.20;55.60;;;;;;5057541;28;20115;-68
2020/12/28 05:12:54;;;;;;;4.50;1.23;;;18.20;55.60;;;;;;5079076;28;20082;-68
2020/12/28 05:15:25;;;;;;;3.33;1.10;;;18.20;55.50;;;;;;5063138;28;20051;-67
2020/12/28 05:17:55;;;;;;;3.92;0.88;;;18.30;55.50;;;;;;5066112;28;20126;-68
2020/12/28 05:20:26;;;;;;;7.55;1.40;;;18.30;55.60;;;;;;5059446;28;20412;-68
2020/12/28 05:22:58;;;;;;;3.97;1.00;;;18.30;55.40;;;;;;5065725;28;20040;-65
2020/12/28 05:25:28;;;;;;;5.72;1.42;;;18.30;55.40;;;;;;5063683;28;20041;-68
2020/12/28 05:28:02;;;;;;;3.28;1.08;;;18.20;55.40;;;;;;5051864;28;20492;-68
2020/12/28 05:30:35;;;;;;;5.05;1.02;;;18.30;55.40;;;;;;5066599;28;20099;-68
2020/12/28 05:33:05;;;;;;;2.72;0.70;;;18.20;55.40;;;;;;5057306;28;20051;-68
2020/12/28 05:35:34;;;;;;;3.60;0.93;;;18.30;55.30;;;;;;5049762;28;20062;-68
2020/12/28 05:38:09;;;;;;;3.20;0.77;;;18.30;55.40;;;;;;5064373;28;20060;-68
2020/12/28 05:40:39;;;;;;;3.40;1.00;;;18.30;55.40;;;;;;5061952;28;20137;-68
2020/12/28 05:43:10;;;;;;;3.75;1.40;;;18.30;55.40;;;;;;5064209;28;20037;-68
2020/12/28 05:45:46;;;;;;;4.25;0.73;;;18.30;55.40;;;;;;5065790;28;20044;-68
2020/12/28 05:48:23;;;;;;;3.10;1.05;;;18.30;55.40;;;;;;5048154;28;20064;-69
2020/12/28 05:51:02;;;;;;;2.92;1.15;;;18.30;55.30;;;;;;5050373;28;20037;-68
2020/12/28 05:53:36;;;;;;;4.88;1.33;;;18.30;55.20;;;;;;5064855;28;20044;-69
2020/12/28 05:56:09;;;;;;;2.35;1.17;;;18.30;55.20;;;;;;5058703;28;20128;-69
2020/12/28 05:58:45;;;;;;;1.70;0.75;;;18.30;55.20;;;;;;5064779;28;20063;-69
2020/12/28 06:01:20;;;;;;;2.83;0.93;;;18.30;55.00;;;;;;5059204;28;20049;-68
2020/12/28 06:03:53;;;;;;;2.78;0.90;;;18.30;55.10;;;;;;5055812;28;20140;-70
2020/12/28 06:06:26;;;;;;;5.75;1.02;;;18.30;55.10;;;;;;5050991;28;20436;-68
2020/12/28 06:08:56;;;;;;;7.15;1.40;;;18.30;55.10;;;;;;5061259;28;20167;-68
2020/12/28 06:11:28;;;;;;;5.45;1.42;;;18.40;54.50;;;;;;5069846;28;20508;-68
2020/12/28 06:14:00;;;;;;;3.88;1.00;;;18.30;54.90;;;;;;5056238;28;20534;-68
2020/12/28 06:16:31;;;;;;;2.97;1.02;;;18.30;54.90;;;;;;5057643;28;20052;-69
2020/12/28 06:19:02;;;;;;;2.15;0.60;;;18.30;54.70;;;;;;5061790;28;20048;-67
2020/12/28 06:21:38;;;;;;;2.72;0.82;;;18.30;54.80;;;;;;5052002;28;20076;-69
2020/12/28 06:24:07;;;;;;;2.92;1.13;;;18.40;54.80;;;;;;5063035;28;20040;-68
2020/12/28 06:26:37;;;;;;;2.97;1.27;;;18.30;54.70;;;;;;5065106;28;20043;-68
2020/12/28 06:29:08;;;;;;;3.08;0.85;;;18.40;54.50;;;;;;5077525;28;20036;-68
2020/12/28 06:31:38;;;;;;;2.70;1.05;;;18.40;54.50;;;;;;5076818;28;20502;-68
2020/12/28 06:34:18;;;;;;;1.67;0.75;;;18.40;54.50;;;;;;5066481;28;20044;-68
2020/12/28 06:37:02;;;;;;;4.47;1.38;;;18.40;54.40;;;;;;5059217;28;20060;-68
2020/12/28 06:39:31;;;;;;;2.65;0.75;;;18.40;54.40;;;;;;5065774;28;20055;-65
2020/12/28 06:42:12;;;;;;;5.80;1.00;;;18.40;54.40;;;;;;5070478;28;20076;-66
2020/12/28 06:44:43;;;;;;;2.35;0.98;;;18.40;54.10;;;;;;5062443;28;20036;-69
2020/12/28 06:47:22;;;;;;;2.92;0.70;;;18.40;54.30;;;;;;5069811;28;20048;-68
2020/12/28 06:49:53;;;;;;;3.22;0.77;;;18.40;54.10;;;;;;5054713;28;20120;-70
2020/12/28 06:52:28;;;;;;;3.50;1.10;;;18.40;54.00;;;;;;5064268;28;20106;-71
2020/12/28 06:55:12;;;;;;;1.80;0.95;;;18.40;53.90;;;;;;5060781;28;20044;-67
2020/12/28 06:57:41;;;;;;;3.17;0.80;;;18.40;54.00;;;;;;5065930;28;20057;-68
2020/12/28 07:00:19;;;;;;;2.45;0.77;;;18.40;53.70;;;;;;5058996;28;20489;-70
2020/12/28 07:02:52;;;;;;;3.40;1.30;;;18.40;53.80;;;;;;5056484;28;20546;-68
2020/12/28 07:05:27;;;;;;;4.43;1.15;;;18.40;53.80;;;;;;5066775;28;20040;-69
2020/12/28 07:07:59;;;;;;;3.00;0.80;;;18.40;54.40;;;;;;5063258;28;20124;-71
2020/12/28 07:10:30;;;;;;;5.63;0.70;;;18.40;53.50;;;;;;5059324;28;20045;-68
2020/12/28 07:13:08;;;;;;;;;;;18.40;53.60;;;;;;5077444;28;20086;-69
2020/12/28 07:15:39;;;;;;;3.00;0.73;;;18.40;53.60;;;;;;5059669;28;19978;-68
2020/12/28 07:18:09;;;;;;;2.20;0.63;;;18.40;53.50;;;;;;5054721;28;20066;-68
2020/12/28 07:20:39;;;;;;;3.47;1.30;;;18.40;53.50;;;;;;5066949;28;20476;-69
2020/12/28 07:23:08;;;;;;;2.35;0.75;;;18.40;53.40;;;;;;5063887;28;20479;-68
2020/12/28 07:25:38;;;;;;;5.75;0.90;;;18.40;53.40;;;;;;5056299;28;20058;-68
2020/12/28 07:28:09;;;;;;;4.25;1.23;;;18.40;53.30;;;;;;5067948;28;20532;-68
2020/12/28 07:30:39;;;;;;;2.47;1.00;;;18.40;53.30;;;;;;5064340;28;20127;-68
2020/12/28 07:33:18;;;;;;;2.30;0.80;;;18.40;53.40;;;;;;5064559;28;20048;-68
2020/12/28 07:35:48;;;;;;;3.35;0.73;;;18.40;53.30;;;;;;5056758;28;20044;-66
2020/12/28 07:38:19;;;;;;;2.28;0.90;;;18.40;53.30;;;;;;5067706;28;20135;-68
2020/12/28 07:40:54;;;;;;;2.03;0.70;;;18.40;53.30;;;;;;5061812;28;20050;-68
2020/12/28 07:43:24;;;;;;;2.97;0.90;;;18.40;53.30;;;;;;5059201;28;20423;-69
2020/12/28 07:46:18;;;;;;;2.92;1.10;;;18.40;53.30;;;;;;5063083;28;20051;-68
2020/12/28 07:48:53;;;;;;;3.20;0.90;;;18.40;53.30;;;;;;5050325;28;20048;-68
2020/12/28 07:51:27;;;;;;;0.85;0.77;;;18.40;53.30;;;;;;5064697;28;20032;-68
2020/12/28 07:54:09;;;;;;;3.58;1.00;;;18.50;53.10;;;;;;5064465;28;20048;-68
2020/12/28 07:56:47;;;;;;;2.72;1.00;;;18.40;53.10;;;;;;5056203;28;20767;-70
2020/12/28 07:59:46;;;;;;;1.77;0.90;;;18.40;53.10;;;;;;5052922;28;20072;-70
2020/12/28 08:02:50;;;;;;;2.55;0.82;;;18.40;53.00;;;;;;5060422;28;20056;-68
2020/12/28 08:05:23;;;;;;;2.50;0.90;;;18.40;53.00;;;;;;5067612;28;20552;-65
2020/12/28 08:07:54;;;;;;;2.30;0.75;;;18.40;52.90;;;;;;5060029;28;20036;-70
2020/12/28 08:10:25;;;;;;;4.72;1.27;;;18.40;52.90;;;;;;5059771;28;20055;-66
2020/12/28 08:13:01;;;;;;;0.57;0.55;;;18.40;52.90;;;;;;5067750;28;20041;-70
2020/12/28 08:15:35;;;;;;;3.40;0.63;;;18.40;52.80;;;;;;5067735;28;20048;-70
2020/12/28 08:18:12;;;;;;;2.55;0.90;;;18.40;52.80;;;;;;5057783;28;20045;-66
2020/12/28 08:20:41;;;;;;;2.38;1.00;;;18.30;52.60;;;;;;5067647;28;20479;-65
2020/12/28 08:23:11;;;;;;;2.67;0.60;;;18.40;52.70;;;;;;5059456;28;20533;-68
2020/12/28 08:25:42;;;;;;;2.70;1.00;;;18.40;52.70;;;;;;5058944;28;20477;-67
2020/12/28 08:28:12;;;;;;;0.60;0.50;;;18.40;52.70;;;;;;5065080;28;20499;-66
2020/12/28 08:30:42;;;;;;;3.80;0.90;;;18.30;52.60;;;;;;5073216;28;20771;-66
2020/12/28 08:33:11;;;;;;;1.10;0.65;;;18.40;52.70;;;;;;5064521;28;20051;-69
2020/12/28 08:35:51;;;;;;;1.98;1.02;;;18.30;52.50;;;;;;5067623;28;20492;-66
2020/12/28 08:38:32;;;;;;;3.42;0.63;;;18.30;52.50;;;;;;5064186;28;20048;-66
2020/12/28 08:41:01;;;;;;;4.95;0.90;;;18.30;52.60;;;;;;5052861;28;20102;-66
2020/12/28 08:43:31;;;;;;;2.03;0.55;;;18.30;52.60;;;;;;5062990;28;20407;-68
2020/12/28 08:46:02;;;;;;;0.65;0.47;;;18.30;52.60;;;;;;5067282;28;20614;-66
2020/12/28 08:48:32;;;;;;;3.80;1.00;;;18.30;52.70;;;;;;5062690;28;20047;-69
2020/12/28 08:51:17;;;;;;;1.17;0.63;;;18.30;52.60;;;;;;5066496;28;20144;-70
2020/12/28 08:53:52;;;;;;;2.97;0.57;;;18.30;52.70;;;;;;5063879;28;20115;-66
2020/12/28 08:56:21;;;;;;;1.38;0.68;;;18.30;52.60;;;;;;5063774;28;20151;-66
2020/12/28 08:58:52;;;;;;;2.22;0.90;;;18.30;52.60;;;;;;5053391;28;20041;-69
2020/12/28 09:01:24;;;;;;;1.88;0.60;;;18.30;52.60;;;;;;5064065;28;20094;-66
2020/12/28 09:03:56;;;;;;;2.85;1.27;;;18.30;52.60;;;;;;5052362;28;20041;-70
2020/12/28 09:06:27;;;;;;;1.67;0.70;;;18.30;52.70;;;;;;5064517;28;20048;-66
2020/12/28 09:08:58;;;;;;;2.08;0.90;;;18.30;52.70;;;;;;5064636;28;20045;-65
2020/12/28 09:11:29;;;;;;;2.33;0.80;;;18.30;52.70;;;;;;5070517;28;20063;-67
2020/12/28 09:14:00;;;;;;;1.88;0.70;;;18.30;52.70;;;;;;5058955;28;20041;-65
2020/12/28 09:16:30;;;;;;;1.83;0.85;;;18.30;52.80;;;;;;5044950;28;20057;-69
2020/12/28 09:18:59;;;;;;;1.92;0.90;;;18.20;52.70;;;;;;5047982;28;20152;-67
2020/12/28 09:21:29;;;;;;;6.95;1.27;;;18.20;52.80;;;;;;5053865;28;20056;-67
2020/12/28 09:23:59;;;;;;;2.42;0.68;;;18.20;52.80;;;;;;5066007;28;20551;-65
2020/12/28 09:26:29;;;;;;;3.60;0.80;;;18.20;52.80;;;;;;5062390;28;20119;-67
2020/12/28 09:28:58;;;;;;;3.30;0.55;;;18.20;52.80;;;;;;5064729;28;20051;-67
2020/12/28 09:31:28;;;;;;;2.90;0.73;;;18.20;52.80;;;;;;5069678;28;20166;-67
2020/12/28 09:33:57;;;;;;;3.67;1.05;;;18.20;52.80;;;;;;5064122;28;20792;-67
2020/12/28 09:36:27;;;;;;;0.68;0.57;;;18.20;52.80;;;;;;5062002;28;20048;-66
2020/12/28 09:38:56;;;;;;;2.17;0.63;;;18.20;52.80;;;;;;5065053;28;20514;-66
2020/12/28 09:41:26;;;;;;;2.72;1.20;;;18.10;52.80;;;;;;5063830;28;20139;-66
2020/12/28 09:43:56;;;;;;;1.17;0.57;;;18.10;52.80;;;;;;5056945;28;20809;-65
2020/12/28 09:46:25;;;;;;;2.80;0.68;;;18.10;52.80;;;;;;5063274;28;20786;-66
2020/12/28 09:48:57;;;;;;;2.25;0.82;;;18.10;52.80;;;;;;5060390;28;20051;-68
2020/12/28 09:51:30;;;;;;;2.63;0.57;;;18.10;53.00;;;;;;5049252;28;20041;-67
2020/12/28 09:54:04;;;;;;;1.75;0.63;;;18.10;52.90;;;;;;5054281;28;20084;-66
2020/12/28 09:56:55;;;;;;;1.15;0.60;;;18.10;53.00;;;;;;5046993;28;20073;-66
2020/12/28 09:59:25;;;;;;;0.57;0.40;;;18.00;53.00;;;;;;5064310;28;20049;-67
2020/12/28 10:01:57;;;;;;;2.03;0.60;;;18.00;52.90;;;;;;5048836;28;20400;-67
2020/12/28 10:04:27;;;;;;;4.70;0.80;;;18.00;53.00;;;;;;5050291;28;20143;-67
2020/12/28 10:06:58;;;;;;;0.90;0.50;;;18.00;53.10;;;;;;5063231;28;20064;-66
2020/12/28 10:09:29;;;;;;;1.93;0.67;;;18.00;53.00;;;;;;5059904;28;20534;-67
2020/12/28 10:12:00;;;;;;;0.95;0.55;;;17.90;53.00;;;;;;5055199;28;20417;-67
2020/12/28 10:14:31;;;;;;;7.57;0.88;;;17.90;53.10;;;;;;5066031;28;20045;-67
2020/12/28 10:17:01;;;;;;;2.08;0.80;;;17.90;53.30;;;;;;5058164;28;20411;-66
2020/12/28 10:19:30;;;;;;;1.38;0.68;;;17.90;53.30;;;;;;5051035;28;20044;-66
2020/12/28 10:22:01;;;;;;;2.60;0.60;;;17.90;53.40;;;;;;5058686;28;20047;-66
2020/12/28 10:24:31;;;;;;;1.73;0.85;;;17.90;53.60;;;;;;5049124;28;20045;-66
2020/12/28 10:27:00;;;;;;;0.68;0.57;;;17.90;53.60;;;;;;5050582;28;20040;-66
2020/12/28 10:29:30;;;;;;;2.08;0.70;;;17.90;53.70;;;;;;5065626;28;20097;-66
2020/12/28 10:32:00;;;;;;;1.55;0.70;;;17.90;53.80;;;;;;5068677;28;20051;-66
2020/12/28 10:34:31;;;;;;;1.63;0.60;;;17.90;53.80;;;;;;5054264;28;20049;-66
2020/12/28 10:37:01;;;;;;;2.25;0.98;;;17.90;53.90;;;;;;5063399;28;20492;-66
2020/12/28 10:39:31;;;;;;;1.27;0.60;;;17.90;54.00;;;;;;5053109;28;20045;-67
2020/12/28 10:42:06;;;;;;;1.15;0.70;;;17.90;54.10;;;;;;5053813;28;20077;-67
2020/12/28 10:44:36;;;;;;;1.83;0.65;;;17.80;54.10;;;;;;5060724;28;20139;-67
2020/12/28 10:47:05;;;;;;;1.90;0.73;;;17.80;54.20;;;;;;5065249;28;20124;-67
2020/12/28 10:49:35;;;;;;;1.58;0.70;;;17.80;54.20;;;;;;5054114;28;20045;-67
2020/12/28 10:52:07;;;;;;;2.88;0.93;;;17.80;54.20;;;;;;5056567;28;20036;-67
2020/12/28 10:54:38;;;;;;;0.90;0.40;;;17.70;54.30;;;;;;5056084;28;20055;-67
2020/12/28 10:57:07;;;;;;;4.53;1.00;;;17.80;54.40;;;;;;5046580;28;20053;-68
2020/12/28 10:59:37;;;;;;;0.73;0.60;;;17.80;54.40;;;;;;5056711;28;20047;-66
2020/12/28 11:02:08;;;;;;;1.42;0.60;;;17.70;54.50;;;;;;5046772;28;20050;-66
2020/12/28 11:04:38;;;;;;;0.95;0.60;;;17.70;54.60;;;;;;5056117;28;20033;-68
2020/12/28 11:07:12;;;;;;;2.55;1.05;;;17.70;54.50;;;;;;5063123;28;20086;-66
2020/12/28 11:09:42;;;;;;;;;;;17.70;54.70;;;;;;5059666;28;20041;-67
2020/12/28 11:12:13;;;;;;;1.02;0.50;;;17.60;54.70;;;;;;5077282;28;19931;-68
2020/12/28 11:14:44;;;;;;;;;;;17.60;54.80;;;;;;5061436;28;20055;-68
2020/12/28 11:17:14;;;;;;;1.30;0.40;;;17.60;54.80;;;;;;5057899;28;19931;-67
2020/12/28 11:19:44;;;;;;;1.90;0.98;;;17.60;54.90;;;;;;5052320;28;20468;-67
2020/12/28 11:22:14;;;;;;;1.10;1.05;;;17.60;55.00;;;;;;5056619;28;20692;-67
2020/12/28 11:24:43;;;;;;;1.45;0.95;;;17.60;55.00;;;;;;5056136;28;20047;-67
2020/12/28 11:27:13;;;;;;;1.88;0.60;;;17.50;55.10;;;;;;5054245;28;20045;-67
2020/12/28 11:29:43;;;;;;;0.70;0.57;;;17.50;55.10;;;;;;5058818;28;20072;-67
2020/12/28 11:32:12;;;;;;;1.15;0.68;;;17.50;55.30;;;;;;5072949;28;20171;-67
2020/12/28 11:34:42;;;;;;;1.88;0.77;;;17.50;55.40;;;;;;5064219;28;20161;-67
2020/12/28 11:37:11;;;;;;;1.75;0.85;;;17.50;55.40;;;;;;5067241;28;20052;-67
2020/12/28 11:39:42;;;;;;;1.42;1.00;;;17.50;55.50;;;;;;5061237;28;20102;-68
2020/12/28 11:42:12;;;;;;;2.13;0.70;;;17.50;55.50;;;;;;5068323;28;20075;-67
2020/12/28 11:44:44;;;;;;;2.25;0.70;;;17.50;55.60;;;;;;5044832;28;20045;-67
2020/12/28 11:47:15;;;;;;;2.85;1.05;;;17.50;55.60;;;;;;5055215;28;20040;-67
2020/12/28 11:49:45;;;;;;;1.75;0.93;;;17.40;55.70;;;;;;5060497;28;20079;-68
2020/12/28 11:52:17;;;;;;;2.15;1.05;;;17.40;55.80;;;;;;5050073;28;20045;-67
2020/12/28 11:54:48;;;;;;;1.08;0.60;;;17.40;55.90;;;;;;5067714;28;20348;-67
2020/12/28 11:57:18;;;;;;;0.90;0.80;;;17.40;55.90;;;;;;5054535;28;20037;-66
2020/12/28 11:59:48;;;;;;;2.67;0.70;;;17.30;56.00;;;;;;5065659;28;20098;-66
2020/12/28 12:02:25;;;;;;;1.40;0.65;;;17.30;56.20;;;;;;5064421;28;20094;-67
2020/12/28 12:04:57;;;;;;;2.95;0.95;;;17.30;56.20;;;;;;5066564;28;20040;-67
2020/12/28 12:07:29;;;;;;;1.83;0.88;;;17.30;56.30;;;;;;5056710;28;20512;-67
2020/12/28 12:10:00;;;;;;;4.20;1.60;;;17.30;56.30;;;;;;5063284;28;20071;-66
2020/12/28 12:12:32;;;;;;;3.42;1.20;;;17.30;56.40;;;;;;5071070;28;20055;-67
2020/12/28 12:15:04;;;;;;;3.95;1.25;;;17.30;56.50;;;;;;5055209;28;20068;-68
2020/12/28 12:17:34;;;;;;;1.83;0.93;;;17.20;56.40;;;;;;5064476;28;20054;-67
2020/12/28 12:20:03;;;;;;;1.58;1.15;;;17.20;56.60;;;;;;5067164;28;20277;-67
2020/12/28 12:22:33;;;;;;;4.18;1.40;;;17.20;56.80;;;;;;5064022;28;20054;-67
2020/12/28 12:25:03;;;;;;;2.22;0.88;;;17.20;56.90;;;;;;5054202;28;20036;-67
2020/12/28 12:27:32;;;;;;;2.85;1.02;;;17.20;56.90;;;;;;5062861;28;20049;-67
2020/12/28 12:30:16;;;;;;;2.13;1.30;;;17.20;57.00;;;;;;5065970;28;20117;-66
2020/12/28 12:32:46;;;;;;;1.85;0.82;;;17.10;57.00;;;;;;5056152;28;20071;-67
2020/12/28 12:35:17;;;;;;;2.55;1.15;;;17.10;57.10;;;;;;5065782;28;20055;-67
2020/12/28 12:37:49;;;;;;;3.65;1.20;;;17.10;57.10;;;;;;5063572;28;20054;-66
2020/12/28 12:40:19;;;;;;;2.42;1.17;;;17.10;57.30;;;;;;5057487;28;20123;-66
2020/12/28 12:42:51;;;;;;;2.65;1.00;;;17.10;57.30;;;;;;5050417;28;20064;-66
2020/12/28 12:45:20;;;;;;;2.92;1.10;;;17.10;57.50;;;;;;5076444;28;20056;-67
2020/12/28 12:47:50;;;;;;;2.28;1.33;;;17.00;57.40;;;;;;5056877;28;20047;-66
2020/12/28 12:50:21;;;;;;;2.13;0.90;;;17.00;57.60;;;;;;5058849;28;20564;-67
2020/12/28 12:52:53;;;;;;;2.75;0.80;;;17.00;57.70;;;;;;5047277;28;20041;-66
2020/12/28 12:55:25;;;;;;;2.33;1.15;;;17.00;57.80;;;;;;5063069;28;20048;-67
2020/12/28 12:57:54;;;;;;;1.85;0.80;;;17.00;57.80;;;;;;5046708;28;20045;-67
2020/12/28 13:00:26;;;;;;;3.13;1.10;;;17.00;57.90;;;;;;5055572;28;20040;-67
2020/12/28 13:02:57;;;;;;;2.90;1.05;;;16.90;58.00;;;;;;5056065;28;20143;-66
2020/12/28 13:05:29;;;;;;;2.35;1.10;;;16.90;58.10;;;;;;5067362;28;20066;-66
2020/12/28 13:08:01;;;;;;;2.33;1.20;;;16.90;58.10;;;;;;5054163;28;20049;-66
2020/12/28 13:10:32;;;;;;;3.28;0.90;;;16.90;58.30;;;;;;5051460;28;20107;-67
2020/12/28 13:13:03;;;;;;;;;;;16.90;58.20;;;;;;5075553;28;20043;-67
2020/12/28 13:15:33;;;;;;;3.10;0.80;;;16.90;58.50;;;;;;5059684;28;20525;-67
2020/12/28 13:18:04;;;;;;;2.13;0.95;;;16.80;58.40;;;;;;5065197;28;20496;-66
2020/12/28 13:20:33;;;;;;;3.08;1.30;;;16.80;58.60;;;;;;5064977;28;20119;-66
2020/12/28 13:23:05;;;;;;;2.05;0.95;;;16.80;58.60;;;;;;5066394;28;20148;-66